Time,TemperatureF,DewpointF,PressureIn,WindDirection,WindDirectionDegrees,WindSpeedMPH,WindSpeedGustMPH,Humidity,HourlyPrecipIn,Conditions,Clouds,dailyrainin,SoftwareType,DateUTC
2013-07-17 00:12:00,83.4,74.0,31.38,North,10,0.0,-999.0,73,-99.99,,,0.00,weatherlink.com 1.10,2013-07-17 04:12:00,
2013-07-17 00:27:00,82.9,74.0,31.38,North,350,0.0,-999.0,75,-99.99,,,0.00,weatherlink.com 1.10,2013-07-17 04:27:00,
2013-07-17 00:42:00,81.8,73.0,31.38,ENE,64,0.0,-999.0,75,-99.99,,,0.00,weatherlink.com 1.10,2013-07-17 04:42:00,
2013-07-17 00:58:00,81.7,73.0,31.38,NE,49,1.0,-999.0,74,-99.99,,,0.00,weatherlink.com 1.10,2013-07-17 04:58:00,
2013-07-17 01:13:00,81.6,73.0,28.07,NE,49,0.0,-999.0,74,-99.99,,,0.00,weatherlink.com 1.10,2013-07-17 05:13:00,
2013-07-17 01:28:00,81.2,73.0,28.07,NE,49,0.0,-999.0,75,-99.99,,,0.00,weatherlink.com 1.10,2013-07-17 05:28:00,
2013-07-17 01:43:00,80.7,73.0,28.07,NE,49,0.0,-999.0,76,-99.99,,,0.00,weatherlink.com 1.10,2013-07-17 05:43:00,
2013-07-17 01:58:00,80.9,73.0,28.07,East,81,0.0,-999.0,76,-99.99,,,0.00,weatherlink.com 1.10,2013-07-17 05:58:00,
2013-07-17 02:13:00,80.6,73.0,28.07,WNW,300,0.0,-999.0,77,-99.99,,,0.00,weatherlink.com 1.10,2013-07-17 06:13:00,
2013-07-17 02:28:00,80.4,73.0,30.12,North,351,0.0,-999.0,79,-99.99,,,0.00,weatherlink.com 1.10,2013-07-17 06:28:00,
2013-07-17 02:43:00,79.9,73.0,30.12,North,4,0.0,-999.0,80,-99.99,,,0.00,weatherlink.com 1.10,2013-07-17 06:43:00,
2013-07-17 02:58:00,79.6,73.0,30.12,NNW,342,0.0,-999.0,81,-99.99,,,0.00,weatherlink.com 1.10,2013-07-17 06:58:00,
2013-07-17 03:13:00,79.1,73.0,30.12,NNW,342,0.0,-999.0,81,-99.99,,,0.00,weatherlink.com 1.10,2013-07-17 07:13:00,
2013-07-17 03:28:00,78.6,73.0,30.12,North,351,0.0,-999.0,82,-99.99,,,0.00,weatherlink.com 1.10,2013-07-17 07:28:00,
2013-07-17 03:43:00,79.3,73.0,30.12,North,7,0.0,-999.0,82,-99.99,,,0.00,weatherlink.com 1.10,2013-07-17 07:43:00,
2013-07-17 03:58:00,78.9,73.0,28.85,North,7,0.0,-999.0,82,-99.99,,,0.00,weatherlink.com 1.10,2013-07-17 07:58:00,
2013-07-17 04:13:00,78.1,73.0,28.85,North,7,0.0,-999.0,83,-99.99,,,0.00,weatherlink.com 1.10,2013-07-17 08:13:00,
2013-07-17 04:28:00,77.7,73.0,31.39,North,352,0.0,-999.0,85,-99.99,,,0.00,weatherlink.com 1.10,2013-07-17 08:28:00,
2013-07-17 04:43:00,77.6,73.0,31.39,North,10,0.0,-999.0,85,-99.99,,,0.00,weatherlink.com 1.10,2013-07-17 08:43:00,
2013-07-17 04:58:00,77.4,73.0,31.39,ENE,60,0.0,-999.0,86,-99.99,,,0.00,weatherlink.com 1.10,2013-07-17 08:58:00,
2013-07-17 05:13:00,77.4,73.0,31.39,ENE,60,0.0,-999.0,86,-99.99,,,0.00,weatherlink.com 1.10,2013-07-17 09:13:00,
2013-07-17 05:28:00,77.4,73.0,31.39,ENE,67,2.0,-999.0,86,-99.99,,,0.00,weatherlink.com 1.10,2013-07-17 09:28:00,
2013-07-17 05:43:00,77.8,73.0,31.39,ESE,112,1.0,-999.0,86,-99.99,,,0.00,weatherlink.com 1.10,2013-07-17 09:43:00,
2013-07-17 05:58:00,77.6,73.0,31.39,ENE,73,1.0,-999.0,86,-99.99,,,0.00,weatherlink.com 1.10,2013-07-17 09:58:00,
2013-07-17 06:13:00,77.7,74.0,31.39,SE,124,2.0,-999.0,87,-99.99,,,0.00,weatherlink.com 1.10,2013-07-17 10:13:00,
2013-07-17 06:28:00,77.5,73.0,31.39,East,86,1.0,-999.0,86,-99.99,,,0.00,weatherlink.com 1.10,2013-07-17 10:28:00,
2013-07-17 06:43:00,77.3,73.0,30.15,ENE,64,2.0,-999.0,87,-99.99,,,0.00,weatherlink.com 1.10,2013-07-17 10:43:00,
2013-07-17 06:58:00,77.4,73.0,30.15,East,81,1.0,-999.0,86,-99.99,,,0.00,weatherlink.com 1.10,2013-07-17 10:58:00,
2013-07-17 07:13:00,77.6,73.0,30.15,ESE,106,2.0,-999.0,86,-99.99,,,0.00,weatherlink.com 1.10,2013-07-17 11:13:00,
2013-07-17 07:28:00,78.4,74.0,30.15,ESE,115,2.0,-999.0,85,-99.99,,,0.00,weatherlink.com 1.10,2013-07-17 11:28:00,
2013-07-17 07:43:00,78.6,73.0,30.15,ESE,104,1.0,-999.0,84,-99.99,,,0.00,weatherlink.com 1.10,2013-07-17 11:43:00,
2013-07-17 07:58:00,79.4,74.0,30.15,East,88,1.0,-999.0,83,-99.99,,,0.00,weatherlink.com 1.10,2013-07-17 11:58:00,
2013-07-17 08:13:00,80.6,74.0,30.15,East,97,2.0,-999.0,81,-99.99,,,0.00,weatherlink.com 1.10,2013-07-17 12:13:00,
2013-07-17 08:28:00,81.9,75.0,30.15,NNE,25,1.0,-999.0,80,-99.99,,,0.00,weatherlink.com 1.10,2013-07-17 12:28:00,
2013-07-17 08:43:00,83.4,76.0,30.15,NNW,336,0.0,-999.0,77,-99.99,,,0.00,weatherlink.com 1.10,2013-07-17 12:43:00,
2013-07-17 08:58:00,83.9,75.0,30.15,North,11,0.0,-999.0,75,-99.99,,,0.00,weatherlink.com 1.10,2013-07-17 12:58:00,
2013-07-17 09:13:00,83.6,75.0,30.15,East,95,0.0,-999.0,76,-99.99,,,0.00,weatherlink.com 1.10,2013-07-17 13:13:00,
2013-07-17 09:28:00,84.4,75.0,30.15,WSW,244,1.0,-999.0,73,-99.99,,,0.00,weatherlink.com 1.10,2013-07-17 13:28:00,
2013-07-17 09:43:00,84.5,76.0,30.15,South,189,6.0,-999.0,76,-99.99,,,0.00,weatherlink.com 1.10,2013-07-17 13:43:00,
2013-07-17 09:58:00,86.0,77.0,30.15,SSW,205,8.0,-999.0,74,-99.99,,,0.00,weatherlink.com 1.10,2013-07-17 13:58:00,
2013-07-17 10:13:00,87.2,78.0,30.15,WSW,247,1.0,-999.0,73,-99.99,,,0.00,weatherlink.com 1.10,2013-07-17 14:13:00,
2013-07-17 10:28:00,86.9,78.0,30.15,South,182,7.0,-999.0,75,-99.99,,,0.00,weatherlink.com 1.10,2013-07-17 14:28:00,
2013-07-17 10:43:00,86.3,76.0,30.15,WSW,237,1.0,-999.0,71,-99.99,,,0.00,weatherlink.com 1.10,2013-07-17 14:43:00,
2013-07-17 10:58:00,87.2,76.0,30.15,NNW,339,2.0,-999.0,69,-99.99,,,0.00,weatherlink.com 1.10,2013-07-17 14:58:00,
2013-07-17 11:13:00,88.3,75.0,30.15,NW,304,2.0,-999.0,65,-99.99,,,0.00,weatherlink.com 1.10,2013-07-17 15:13:00,
2013-07-17 11:28:00,89.6,76.0,30.15,SW,227,6.0,-999.0,64,-99.99,,,0.00,weatherlink.com 1.10,2013-07-17 15:28:00,
2013-07-17 11:43:00,88.4,76.0,30.15,West,276,2.0,-999.0,67,-99.99,,,0.00,weatherlink.com 1.10,2013-07-17 15:43:00,
2013-07-17 11:58:00,88.5,77.0,30.15,ESE,113,1.0,-999.0,69,-99.99,,,0.00,weatherlink.com 1.10,2013-07-17 15:58:00,
2013-07-17 12:13:00,88.1,77.0,30.15,WSW,256,2.0,-999.0,69,-99.99,,,0.00,weatherlink.com 1.10,2013-07-17 16:13:00,
2013-07-17 12:28:00,88.0,77.0,30.15,SE,127,3.0,-999.0,69,-99.99,,,0.00,weatherlink.com 1.10,2013-07-17 16:28:00,
2013-07-17 12:43:00,87.4,77.0,30.15,South,177,6.0,-999.0,70,-99.99,,,0.00,weatherlink.com 1.10,2013-07-17 16:43:00,
2013-07-17 12:58:00,85.9,75.0,31.48,SE,133,1.0,-999.0,69,-99.99,,,0.04,weatherlink.com 1.10,2013-07-17 16:58:00,
2013-07-17 13:13:00,87.0,76.0,31.48,SSE,159,2.0,-999.0,70,-99.99,,,0.04,weatherlink.com 1.10,2013-07-17 17:13:00,
2013-07-17 13:28:00,88.3,77.0,31.48,SSE,151,3.0,-999.0,69,-99.99,,,0.04,weatherlink.com 1.10,2013-07-17 17:28:00,
2013-07-17 13:43:00,89.8,74.0,31.48,SSE,158,1.0,-999.0,60,-99.99,,,0.04,weatherlink.com 1.10,2013-07-17 17:43:00,
2013-07-17 13:58:00,89.5,74.0,31.48,SSE,166,5.0,-999.0,61,-99.99,,,0.04,weatherlink.com 1.10,2013-07-17 17:58:00,
2013-07-17 14:13:00,88.1,76.0,31.48,SSE,158,4.0,-999.0,68,-99.99,,,0.04,weatherlink.com 1.10,2013-07-17 18:13:00,
2013-07-17 14:28:00,83.0,74.0,31.48,South,187,5.0,-999.0,73,-99.99,,,0.16,weatherlink.com 1.10,2013-07-17 18:28:00,
2013-07-17 14:43:00,84.3,74.0,31.48,SSE,162,3.0,-999.0,72,-99.99,,,0.16,weatherlink.com 1.10,2013-07-17 18:43:00,
2013-07-17 14:58:00,85.9,75.0,31.48,NE,50,2.0,-999.0,70,-99.99,,,0.16,weatherlink.com 1.10,2013-07-17 18:58:00,
2013-07-17 15:13:00,87.5,77.0,31.48,WNW,286,2.0,-999.0,71,-99.99,,,0.16,weatherlink.com 1.10,2013-07-17 19:13:00,
2013-07-17 15:29:00,89.0,77.0,31.48,WSW,250,2.0,-999.0,68,-99.99,,,0.16,weatherlink.com 1.10,2013-07-17 19:29:00,
2013-07-17 15:44:00,89.1,76.0,32.46,South,190,5.0,-999.0,66,-99.99,,,0.16,weatherlink.com 1.10,2013-07-17 19:44:00,
2013-07-17 15:59:00,90.4,76.0,32.46,SE,142,2.0,-999.0,63,-99.99,,,0.16,weatherlink.com 1.10,2013-07-17 19:59:00,
2013-07-17 16:14:00,90.6,76.0,32.46,SE,133,2.0,-999.0,63,-99.99,,,0.16,weatherlink.com 1.10,2013-07-17 20:14:00,
2013-07-17 16:29:00,91.2,72.0,32.46,NE,38,4.0,-999.0,54,-99.99,,,0.16,weatherlink.com 1.10,2013-07-17 20:29:00,
2013-07-17 16:44:00,90.5,74.0,32.46,SW,236,8.0,-999.0,58,-99.99,,,0.16,weatherlink.com 1.10,2013-07-17 20:44:00,
2013-07-17 16:59:00,91.0,75.0,32.46,ENE,75,3.0,-999.0,59,-99.99,,,0.16,weatherlink.com 1.10,2013-07-17 20:59:00,
2013-07-17 17:14:00,91.8,73.0,32.46,WSW,250,4.0,-999.0,55,-99.99,,,0.16,weatherlink.com 1.10,2013-07-17 21:14:00,
2013-07-17 17:29:00,92.2,74.0,32.46,West,273,7.0,-999.0,56,-99.99,,,0.16,weatherlink.com 1.10,2013-07-17 21:29:00,
2013-07-17 17:44:00,91.0,74.0,32.46,SW,228,7.0,-999.0,58,-99.99,,,0.16,weatherlink.com 1.10,2013-07-17 21:44:00,
2013-07-17 17:59:00,91.2,74.0,32.46,SW,232,3.0,-999.0,58,-99.99,,,0.16,weatherlink.com 1.10,2013-07-17 21:59:00,
2013-07-17 18:14:00,91.1,75.0,32.46,SW,234,6.0,-999.0,59,-99.99,,,0.16,weatherlink.com 1.10,2013-07-17 22:14:00,
2013-07-17 18:29:00,90.9,75.0,32.46,North,357,3.0,-999.0,59,-99.99,,,0.16,weatherlink.com 1.10,2013-07-17 22:29:00,
2013-07-17 18:44:00,91.1,72.0,32.46,SSE,162,3.0,-999.0,53,-99.99,,,0.16,weatherlink.com 1.10,2013-07-17 22:44:00,
2013-07-17 18:59:00,91.9,77.0,32.46,WNW,290,6.0,-999.0,62,-99.99,,,0.16,weatherlink.com 1.10,2013-07-17 22:59:00,
2013-07-17 19:14:00,89.6,76.0,32.46,WNW,300,3.0,-999.0,64,-99.99,,,0.16,weatherlink.com 1.10,2013-07-17 23:14:00,
2013-07-17 19:29:00,89.7,74.0,32.46,NNW,344,4.0,-999.0,61,-99.99,,,0.16,weatherlink.com 1.10,2013-07-17 23:29:00,
2013-07-17 19:44:00,90.5,78.0,32.46,North,8,2.0,-999.0,66,-99.99,,,0.16,weatherlink.com 1.10,2013-07-17 23:44:00,
2013-07-17 19:59:00,89.8,75.0,32.46,WNW,300,2.0,-999.0,62,-99.99,,,0.16,weatherlink.com 1.10,2013-07-17 23:59:00,
2013-07-17 20:14:00,89.0,76.0,32.46,NNW,343,2.0,-999.0,65,-99.99,,,0.16,weatherlink.com 1.10,2013-07-18 00:14:00,
2013-07-17 20:29:00,88.6,75.0,32.46,WNW,286,4.0,-999.0,65,-99.99,,,0.16,weatherlink.com 1.10,2013-07-18 00:29:00,
2013-07-17 20:44:00,88.2,76.0,32.46,West,279,3.0,-999.0,68,-99.99,,,0.16,weatherlink.com 1.10,2013-07-18 00:44:00,
2013-07-17 20:59:00,87.2,75.0,32.46,NNW,331,5.0,-999.0,66,-99.99,,,0.16,weatherlink.com 1.10,2013-07-18 00:59:00,
2013-07-17 21:14:00,86.9,77.0,28.87,NNW,342,0.0,-999.0,72,-99.99,,,0.16,weatherlink.com 1.10,2013-07-18 01:14:00,
2013-07-17 21:29:00,86.8,75.0,28.87,WNW,300,3.0,-999.0,68,-99.99,,,0.16,weatherlink.com 1.10,2013-07-18 01:29:00,
2013-07-17 21:44:00,86.5,75.0,28.87,WNW,284,1.0,-999.0,68,-99.99,,,0.16,weatherlink.com 1.10,2013-07-18 01:44:00,
2013-07-17 21:59:00,86.4,75.0,28.87,North,350,0.0,-999.0,69,-99.99,,,0.16,weatherlink.com 1.10,2013-07-18 01:59:00,
2013-07-17 22:14:00,86.3,75.0,28.87,West,279,1.0,-999.0,69,-99.99,,,0.16,weatherlink.com 1.10,2013-07-18 02:14:00,
2013-07-17 22:29:00,86.1,75.0,28.87,North,356,0.0,-999.0,69,-99.99,,,0.16,weatherlink.com 1.10,2013-07-18 02:29:00,
2013-07-17 22:44:00,85.6,74.0,28.87,NNE,21,1.0,-999.0,69,-99.99,,,0.16,weatherlink.com 1.10,2013-07-18 02:44:00,
2013-07-17 22:59:00,85.2,75.0,28.87,NNE,23,0.0,-999.0,71,-99.99,,,0.16,weatherlink.com 1.10,2013-07-18 02:59:00,
2013-07-17 23:14:00,85.2,74.0,28.87,NNE,23,0.0,-999.0,70,-99.99,,,0.16,weatherlink.com 1.10,2013-07-18 03:14:00,
2013-07-17 23:29:00,85.1,75.0,28.87,North,7,0.0,-999.0,72,-99.99,,,0.16,weatherlink.com 1.10,2013-07-18 03:29:00,
2013-07-17 23:44:00,84.5,75.0,28.87,North,7,0.0,-999.0,74,-99.99,,,0.16,weatherlink.com 1.10,2013-07-18 03:44:00,
2013-07-17 23:59:00,84.0,76.0,28.87,North,7,0.0,-999.0,76,-99.99,,,0.16,weatherlink.com 1.10,2013-07-18 03:59:00,